sensor_id;sensor_type;location;lat;lon;timestamp;P1;durP1;ratioP1;P2;durP2;ratioP2
61407;SDS011;47274;43.054;25.146;2023-07-30T00:01:51;6.72;;;4.03;;
61407;SDS011;47274;43.054;25.146;2023-07-30T00:04:16;7.78;;;3.80;;
61407;SDS011;47274;43.054;25.146;2023-07-30T00:06:42;5.05;;;3.72;;
61407;SDS011;47274;43.054;25.146;2023-07-30T00:09:08;6.28;;;3.60;;
61407;SDS011;47274;43.054;25.146;2023-07-30T00:11:36;6.32;;;3.65;;
61407;SDS011;47274;43.054;25.146;2023-07-30T00:14:02;7.10;;;3.85;;
61407;SDS011;47274;43.054;25.146;2023-07-30T00:16:28;5.72;;;3.70;;
61407;SDS011;47274;43.054;25.146;2023-07-30T00:18:53;8.50;;;3.90;;
61407;SDS011;47274;43.054;25.146;2023-07-30T00:21:22;6.15;;;3.67;;
61407;SDS011;47274;43.054;25.146;2023-07-30T00:23:50;6.88;;;3.60;;
61407;SDS011;47274;43.054;25.146;2023-07-30T00:26:16;7.10;;;4.13;;
61407;SDS011;47274;43.054;25.146;2023-07-30T00:28:42;7.30;;;3.72;;
61407;SDS011;47274;43.054;25.146;2023-07-30T00:31:08;7.18;;;3.78;;
61407;SDS011;47274;43.054;25.146;2023-07-30T00:33:34;6.88;;;3.92;;
61407;SDS011;47274;43.054;25.146;2023-07-30T00:36:02;6.85;;;3.78;;
61407;SDS011;47274;43.054;25.146;2023-07-30T00:38:28;5.03;;;3.55;;
61407;SDS011;47274;43.054;25.146;2023-07-30T00:40:55;5.47;;;3.58;;
61407;SDS011;47274;43.054;25.146;2023-07-30T00:43:21;7.95;;;3.65;;
61407;SDS011;47274;43.054;25.146;2023-07-30T00:45:47;5.50;;;3.85;;
61407;SDS011;47274;43.054;25.146;2023-07-30T00:48:14;6.45;;;3.60;;
61407;SDS011;47274;43.054;25.146;2023-07-30T00:50:40;6.47;;;3.92;;
61407;SDS011;47274;43.054;25.146;2023-07-30T00:53:10;5.50;;;3.40;;
61407;SDS011;47274;43.054;25.146;2023-07-30T00:55:39;6.03;;;3.60;;
61407;SDS011;47274;43.054;25.146;2023-07-30T00:58:05;6.20;;;3.70;;
61407;SDS011;47274;43.054;25.146;2023-07-30T01:00:31;7.75;;;3.60;;
61407;SDS011;47274;43.054;25.146;2023-07-30T01:02:57;4.85;;;3.35;;
61407;SDS011;47274;43.054;25.146;2023-07-30T01:05:23;9.25;;;3.70;;
61407;SDS011;47274;43.054;25.146;2023-07-30T01:07:51;6.47;;;3.55;;
61407;SDS011;47274;43.054;25.146;2023-07-30T01:10:20;5.38;;;3.70;;
61407;SDS011;47274;43.054;25.146;2023-07-30T01:12:48;6.00;;;3.55;;
61407;SDS011;47274;43.054;25.146;2023-07-30T01:15:14;9.90;;;3.95;;
61407;SDS011;47274;43.054;25.146;2023-07-30T01:17:44;7.20;;;3.50;;
61407;SDS011;47274;43.054;25.146;2023-07-30T01:20:10;5.13;;;3.63;;
61407;SDS011;47274;43.054;25.146;2023-07-30T01:22:37;7.60;;;3.60;;
61407;SDS011;47274;43.054;25.146;2023-07-30T01:25:03;6.50;;;3.95;;
61407;SDS011;47274;43.054;25.146;2023-07-30T01:27:30;9.27;;;3.92;;
61407;SDS011;47274;43.054;25.146;2023-07-30T01:32:44;5.60;;;3.80;;
61407;SDS011;47274;43.054;25.146;2023-07-30T01:35:20;7.88;;;3.70;;
61407;SDS011;47274;43.054;25.146;2023-07-30T01:37:50;7.03;;;3.92;;
61407;SDS011;47274;43.054;25.146;2023-07-30T01:40:17;8.25;;;3.95;;
61407;SDS011;47274;43.054;25.146;2023-07-30T01:42:43;7.57;;;4.05;;
61407;SDS011;47274;43.054;25.146;2023-07-30T01:45:08;9.63;;;3.67;;
61407;SDS011;47274;43.054;25.146;2023-07-30T01:47:34;5.97;;;3.65;;
61407;SDS011;47274;43.054;25.146;2023-07-30T01:50:00;6.00;;;3.60;;
61407;SDS011;47274;43.054;25.146;2023-07-30T01:52:26;5.18;;;3.55;;
61407;SDS011;47274;43.054;25.146;2023-07-30T01:54:52;6.50;;;3.90;;
61407;SDS011;47274;43.054;25.146;2023-07-30T01:57:18;5.95;;;3.65;;
61407;SDS011;47274;43.054;25.146;2023-07-30T01:59:43;6.72;;;3.88;;
61407;SDS011;47274;43.054;25.146;2023-07-30T02:02:09;7.90;;;4.00;;
61407;SDS011;47274;43.054;25.146;2023-07-30T02:04:35;5.57;;;3.70;;
61407;SDS011;47274;43.054;25.146;2023-07-30T02:07:01;7.15;;;4.10;;
61407;SDS011;47274;43.054;25.146;2023-07-30T02:09:29;7.38;;;3.80;;
61407;SDS011;47274;43.054;25.146;2023-07-30T02:11:55;7.00;;;4.15;;
61407;SDS011;47274;43.054;25.146;2023-07-30T02:14:21;5.85;;;3.53;;
61407;SDS011;47274;43.054;25.146;2023-07-30T02:16:48;5.45;;;3.50;;
61407;SDS011;47274;43.054;25.146;2023-07-30T02:19:14;5.28;;;3.42;;
61407;SDS011;47274;43.054;25.146;2023-07-30T02:21:39;6.03;;;3.97;;
61407;SDS011;47274;43.054;25.146;2023-07-30T02:24:08;6.70;;;3.88;;
61407;SDS011;47274;43.054;25.146;2023-07-30T02:26:37;7.30;;;3.88;;
61407;SDS011;47274;43.054;25.146;2023-07-30T02:29:03;5.90;;;3.50;;
61407;SDS011;47274;43.054;25.146;2023-07-30T02:31:29;6.57;;;3.70;;
61407;SDS011;47274;43.054;25.146;2023-07-30T02:33:56;8.48;;;3.78;;
61407;SDS011;47274;43.054;25.146;2023-07-30T02:36:22;7.20;;;3.80;;
61407;SDS011;47274;43.054;25.146;2023-07-30T02:38:47;6.78;;;3.95;;
61407;SDS011;47274;43.054;25.146;2023-07-30T02:41:13;8.77;;;3.70;;
61407;SDS011;47274;43.054;25.146;2023-07-30T02:43:39;7.30;;;3.60;;
61407;SDS011;47274;43.054;25.146;2023-07-30T02:46:05;5.40;;;3.70;;
61407;SDS011;47274;43.054;25.146;2023-07-30T02:48:32;6.43;;;3.53;;
61407;SDS011;47274;43.054;25.146;2023-07-30T02:50:58;6.57;;;3.95;;
61407;SDS011;47274;43.054;25.146;2023-07-30T02:53:24;6.55;;;3.80;;
61407;SDS011;47274;43.054;25.146;2023-07-30T02:55:50;5.47;;;3.60;;
61407;SDS011;47274;43.054;25.146;2023-07-30T02:58:15;6.25;;;3.70;;
61407;SDS011;47274;43.054;25.146;2023-07-30T03:00:42;6.53;;;3.92;;
61407;SDS011;47274;43.054;25.146;2023-07-30T03:03:07;6.90;;;4.10;;
61407;SDS011;47274;43.054;25.146;2023-07-30T03:05:33;6.18;;;3.67;;
61407;SDS011;47274;43.054;25.146;2023-07-30T03:07:59;6.45;;;3.80;;
61407;SDS011;47274;43.054;25.146;2023-07-30T03:10:25;7.63;;;3.75;;
61407;SDS011;47274;43.054;25.146;2023-07-30T03:12:54;7.43;;;3.92;;
61407;SDS011;47274;43.054;25.146;2023-07-30T03:15:19;7.25;;;3.80;;
61407;SDS011;47274;43.054;25.146;2023-07-30T03:17:45;5.47;;;3.72;;
61407;SDS011;47274;43.054;25.146;2023-07-30T03:20:11;8.77;;;4.30;;
61407;SDS011;47274;43.054;25.146;2023-07-30T03:22:37;8.55;;;4.18;;
61407;SDS011;47274;43.054;25.146;2023-07-30T03:25:03;6.03;;;3.85;;
61407;SDS011;47274;43.054;25.146;2023-07-30T03:27:29;6.25;;;3.67;;
61407;SDS011;47274;43.054;25.146;2023-07-30T03:29:55;7.60;;;3.80;;
61407;SDS011;47274;43.054;25.146;2023-07-30T03:32:21;6.93;;;3.50;;
61407;SDS011;47274;43.054;25.146;2023-07-30T03:34:48;6.10;;;3.70;;
61407;SDS011;47274;43.054;25.146;2023-07-30T03:37:13;5.90;;;3.70;;
61407;SDS011;47274;43.054;25.146;2023-07-30T03:39:42;6.88;;;3.85;;
61407;SDS011;47274;43.054;25.146;2023-07-30T03:42:10;6.68;;;3.88;;
61407;SDS011;47274;43.054;25.146;2023-07-30T03:44:35;6.13;;;3.63;;
61407;SDS011;47274;43.054;25.146;2023-07-30T03:47:01;5.72;;;3.45;;
61407;SDS011;47274;43.054;25.146;2023-07-30T03:49:27;8.13;;;4.10;;
61407;SDS011;47274;43.054;25.146;2023-07-30T03:51:53;8.95;;;3.78;;
61407;SDS011;47274;43.054;25.146;2023-07-30T03:54:19;5.78;;;3.78;;
61407;SDS011;47274;43.054;25.146;2023-07-30T03:56:45;6.18;;;3.60;;
61407;SDS011;47274;43.054;25.146;2023-07-30T03:59:11;7.57;;;3.92;;
61407;SDS011;47274;43.054;25.146;2023-07-30T04:01:39;5.72;;;3.60;;
61407;SDS011;47274;43.054;25.146;2023-07-30T04:04:07;6.43;;;3.65;;
61407;SDS011;47274;43.054;25.146;2023-07-30T04:06:33;6.80;;;3.55;;
61407;SDS011;47274;43.054;25.146;2023-07-30T04:08:58;4.70;;;3.45;;
61407;SDS011;47274;43.054;25.146;2023-07-30T04:11:27;6.82;;;3.50;;
61407;SDS011;47274;43.054;25.146;2023-07-30T04:13:53;5.60;;;3.63;;
61407;SDS011;47274;43.054;25.146;2023-07-30T04:16:18;8.00;;;3.72;;
61407;SDS011;47274;43.054;25.146;2023-07-30T04:18:44;6.43;;;3.72;;
61407;SDS011;47274;43.054;25.146;2023-07-30T04:21:10;6.72;;;3.60;;
61407;SDS011;47274;43.054;25.146;2023-07-30T04:23:39;8.23;;;3.90;;
61407;SDS011;47274;43.054;25.146;2023-07-30T04:26:04;5.50;;;3.70;;
61407;SDS011;47274;43.054;25.146;2023-07-30T04:28:32;6.35;;;3.70;;
61407;SDS011;47274;43.054;25.146;2023-07-30T04:30:59;6.15;;;3.40;;
61407;SDS011;47274;43.054;25.146;2023-07-30T04:33:29;4.70;;;3.65;;
61407;SDS011;47274;43.054;25.146;2023-07-30T04:35:55;5.18;;;3.35;;
61407;SDS011;47274;43.054;25.146;2023-07-30T04:38:22;4.22;;;3.45;;
61407;SDS011;47274;43.054;25.146;2023-07-30T04:40:49;5.07;;;3.30;;
61407;SDS011;47274;43.054;25.146;2023-07-30T04:43:15;5.47;;;3.50;;
61407;SDS011;47274;43.054;25.146;2023-07-30T04:45:42;6.43;;;3.60;;
61407;SDS011;47274;43.054;25.146;2023-07-30T04:48:08;7.05;;;3.70;;
61407;SDS011;47274;43.054;25.146;2023-07-30T04:50:34;5.75;;;3.47;;
61407;SDS011;47274;43.054;25.146;2023-07-30T04:53:00;4.93;;;3.47;;
61407;SDS011;47274;43.054;25.146;2023-07-30T04:55:26;5.53;;;3.80;;
61407;SDS011;47274;43.054;25.146;2023-07-30T04:57:55;5.47;;;3.55;;
61407;SDS011;47274;43.054;25.146;2023-07-30T05:00:21;5.60;;;3.47;;
61407;SDS011;47274;43.054;25.146;2023-07-30T05:02:50;6.97;;;3.60;;
61407;SDS011;47274;43.054;25.146;2023-07-30T05:05:16;5.32;;;3.60;;
61407;SDS011;47274;43.054;25.146;2023-07-30T05:07:41;6.43;;;3.50;;
61407;SDS011;47274;43.054;25.146;2023-07-30T05:10:07;5.75;;;3.72;;
61407;SDS011;47274;43.054;25.146;2023-07-30T05:12:36;5.95;;;3.47;;
61407;SDS011;47274;43.054;25.146;2023-07-30T05:15:02;6.13;;;3.70;;
61407;SDS011;47274;43.054;25.146;2023-07-30T05:17:28;6.10;;;3.67;;
61407;SDS011;47274;43.054;25.146;2023-07-30T05:19:55;7.05;;;3.60;;
61407;SDS011;47274;43.054;25.146;2023-07-30T05:22:21;5.97;;;3.65;;
61407;SDS011;47274;43.054;25.146;2023-07-30T05:24:46;6.15;;;3.42;;
61407;SDS011;47274;43.054;25.146;2023-07-30T05:27:12;5.80;;;3.55;;
61407;SDS011;47274;43.054;25.146;2023-07-30T05:29:38;6.35;;;3.90;;
61407;SDS011;47274;43.054;25.146;2023-07-30T05:32:04;5.10;;;3.67;;
61407;SDS011;47274;43.054;25.146;2023-07-30T05:34:30;5.00;;;3.67;;
61407;SDS011;47274;43.054;25.146;2023-07-30T05:36:56;5.43;;;3.47;;
61407;SDS011;47274;43.054;25.146;2023-07-30T05:39:24;6.07;;;3.47;;
61407;SDS011;47274;43.054;25.146;2023-07-30T05:41:51;5.07;;;3.35;;
61407;SDS011;47274;43.054;25.146;2023-07-30T05:44:17;6.32;;;3.40;;
61407;SDS011;47274;43.054;25.146;2023-07-30T05:46:43;5.65;;;3.63;;
61407;SDS011;47274;43.054;25.146;2023-07-30T05:49:09;6.55;;;3.75;;
61407;SDS011;47274;43.054;25.146;2023-07-30T05:51:34;5.63;;;3.70;;
61407;SDS011;47274;43.054;25.146;2023-07-30T05:54:00;6.13;;;3.40;;
61407;SDS011;47274;43.054;25.146;2023-07-30T05:56:34;4.78;;;3.40;;
61407;SDS011;47274;43.054;25.146;2023-07-30T05:59:00;7.35;;;3.50;;
61407;SDS011;47274;43.054;25.146;2023-07-30T06:01:26;7.40;;;3.30;;
61407;SDS011;47274;43.054;25.146;2023-07-30T06:03:52;5.47;;;3.47;;
61407;SDS011;47274;43.054;25.146;2023-07-30T06:06:20;6.65;;;3.50;;
61407;SDS011;47274;43.054;25.146;2023-07-30T06:08:52;4.63;;;3.20;;
61407;SDS011;47274;43.054;25.146;2023-07-30T06:11:19;5.05;;;3.35;;
61407;SDS011;47274;43.054;25.146;2023-07-30T06:13:45;6.68;;;3.47;;
61407;SDS011;47274;43.054;25.146;2023-07-30T06:16:11;7.45;;;3.58;;
61407;SDS011;47274;43.054;25.146;2023-07-30T06:18:38;6.40;;;3.15;;
61407;SDS011;47274;43.054;25.146;2023-07-30T06:21:03;7.00;;;3.63;;
61407;SDS011;47274;43.054;25.146;2023-07-30T06:23:29;6.20;;;3.67;;
61407;SDS011;47274;43.054;25.146;2023-07-30T06:25:55;4.45;;;3.00;;
61407;SDS011;47274;43.054;25.146;2023-07-30T06:28:21;3.78;;;3.13;;
61407;SDS011;47274;43.054;25.146;2023-07-30T06:30:46;4.25;;;3.10;;
61407;SDS011;47274;43.054;25.146;2023-07-30T06:33:12;5.05;;;3.13;;
61407;SDS011;47274;43.054;25.146;2023-07-30T06:35:38;4.13;;;3.10;;
61407;SDS011;47274;43.054;25.146;2023-07-30T06:38:05;4.63;;;3.10;;
61407;SDS011;47274;43.054;25.146;2023-07-30T06:40:31;4.20;;;2.92;;
61407;SDS011;47274;43.054;25.146;2023-07-30T06:42:59;4.18;;;3.08;;
61407;SDS011;47274;43.054;25.146;2023-07-30T06:45:25;4.88;;;3.30;;
61407;SDS011;47274;43.054;25.146;2023-07-30T06:47:51;3.83;;;3.10;;
61407;SDS011;47274;43.054;25.146;2023-07-30T06:50:19;4.85;;;3.22;;
61407;SDS011;47274;43.054;25.146;2023-07-30T06:52:48;5.72;;;3.55;;
61407;SDS011;47274;43.054;25.146;2023-07-30T06:55:14;4.05;;;3.22;;
61407;SDS011;47274;43.054;25.146;2023-07-30T06:57:40;6.60;;;3.22;;
61407;SDS011;47274;43.054;25.146;2023-07-30T07:00:06;5.60;;;3.17;;
61407;SDS011;47274;43.054;25.146;2023-07-30T07:02:32;4.93;;;3.08;;
61407;SDS011;47274;43.054;25.146;2023-07-30T07:05:03;5.50;;;3.17;;
61407;SDS011;47274;43.054;25.146;2023-07-30T07:07:30;7.03;;;3.40;;
61407;SDS011;47274;43.054;25.146;2023-07-30T07:09:56;5.55;;;3.30;;
61407;SDS011;47274;43.054;25.146;2023-07-30T07:12:25;4.20;;;3.20;;
61407;SDS011;47274;43.054;25.146;2023-07-30T07:14:53;5.20;;;3.28;;
61407;SDS011;47274;43.054;25.146;2023-07-30T07:17:23;3.42;;;2.88;;
61407;SDS011;47274;43.054;25.146;2023-07-30T07:19:49;7.32;;;3.15;;
61407;SDS011;47274;43.054;25.146;2023-07-30T07:22:15;4.85;;;3.25;;
61407;SDS011;47274;43.054;25.146;2023-07-30T07:24:43;4.60;;;3.50;;
61407;SDS011;47274;43.054;25.146;2023-07-30T07:27:09;4.53;;;2.80;;
61407;SDS011;47274;43.054;25.146;2023-07-30T07:29:35;4.30;;;3.17;;
61407;SDS011;47274;43.054;25.146;2023-07-30T07:32:01;5.10;;;3.30;;
61407;SDS011;47274;43.054;25.146;2023-07-30T07:34:27;4.65;;;3.05;;
61407;SDS011;47274;43.054;25.146;2023-07-30T07:36:53;5.63;;;3.40;;
61407;SDS011;47274;43.054;25.146;2023-07-30T07:39:19;4.28;;;3.30;;
61407;SDS011;47274;43.054;25.146;2023-07-30T07:41:45;4.78;;;3.40;;
61407;SDS011;47274;43.054;25.146;2023-07-30T07:44:11;3.20;;;2.90;;
61407;SDS011;47274;43.054;25.146;2023-07-30T07:46:36;3.90;;;3.03;;
61407;SDS011;47274;43.054;25.146;2023-07-30T07:49:02;4.13;;;2.95;;
61407;SDS011;47274;43.054;25.146;2023-07-30T07:51:28;4.78;;;3.15;;
61407;SDS011;47274;43.054;25.146;2023-07-30T07:53:54;3.75;;;2.70;;
61407;SDS011;47274;43.054;25.146;2023-07-30T07:56:20;4.00;;;2.88;;
61407;SDS011;47274;43.054;25.146;2023-07-30T07:58:46;5.05;;;3.20;;
61407;SDS011;47274;43.054;25.146;2023-07-30T08:01:12;4.18;;;3.22;;
61407;SDS011;47274;43.054;25.146;2023-07-30T08:03:39;3.65;;;2.95;;
61407;SDS011;47274;43.054;25.146;2023-07-30T08:06:08;4.88;;;3.20;;
61407;SDS011;47274;43.054;25.146;2023-07-30T08:08:34;3.30;;;3.00;;
61407;SDS011;47274;43.054;25.146;2023-07-30T08:11:06;5.07;;;3.00;;
61407;SDS011;47274;43.054;25.146;2023-07-30T08:13:32;3.63;;;3.00;;
61407;SDS011;47274;43.054;25.146;2023-07-30T08:15:59;3.88;;;3.22;;
61407;SDS011;47274;43.054;25.146;2023-07-30T08:18:26;4.07;;;2.97;;
61407;SDS011;47274;43.054;25.146;2023-07-30T08:20:53;4.22;;;3.17;;
61407;SDS011;47274;43.054;25.146;2023-07-30T08:23:19;5.18;;;3.05;;
61407;SDS011;47274;43.054;25.146;2023-07-30T08:25:45;5.97;;;3.00;;
61407;SDS011;47274;43.054;25.146;2023-07-30T08:28:13;6.82;;;3.80;;
61407;SDS011;47274;43.054;25.146;2023-07-30T08:30:39;4.65;;;3.10;;
61407;SDS011;47274;43.054;25.146;2023-07-30T08:33:05;6.50;;;3.17;;
61407;SDS011;47274;43.054;25.146;2023-07-30T08:35:31;5.07;;;3.03;;
61407;SDS011;47274;43.054;25.146;2023-07-30T08:37:57;4.80;;;3.10;;
61407;SDS011;47274;43.054;25.146;2023-07-30T08:40:25;5.47;;;3.22;;
61407;SDS011;47274;43.054;25.146;2023-07-30T08:42:51;5.88;;;3.13;;
61407;SDS011;47274;43.054;25.146;2023-07-30T08:45:18;4.05;;;3.03;;
61407;SDS011;47274;43.054;25.146;2023-07-30T08:47:44;3.15;;;2.85;;
61407;SDS011;47274;43.054;25.146;2023-07-30T08:50:11;7.78;;;3.08;;
61407;SDS011;47274;43.054;25.146;2023-07-30T08:52:37;6.50;;;3.22;;
61407;SDS011;47274;43.054;25.146;2023-07-30T08:55:04;5.35;;;2.95;;
61407;SDS011;47274;43.054;25.146;2023-07-30T08:57:31;3.85;;;2.80;;
61407;SDS011;47274;43.054;25.146;2023-07-30T09:00:04;3.28;;;2.65;;
61407;SDS011;47274;43.054;25.146;2023-07-30T09:02:40;4.32;;;2.70;;
61407;SDS011;47274;43.054;25.146;2023-07-30T09:05:10;8.27;;;3.58;;
61407;SDS011;47274;43.054;25.146;2023-07-30T09:07:36;6.90;;;3.00;;
61407;SDS011;47274;43.054;25.146;2023-07-30T09:10:02;4.45;;;2.78;;
61407;SDS011;47274;43.054;25.146;2023-07-30T09:12:29;4.30;;;3.00;;
61407;SDS011;47274;43.054;25.146;2023-07-30T09:14:58;5.18;;;3.20;;
61407;SDS011;47274;43.054;25.146;2023-07-30T09:17:25;5.35;;;3.10;;
61407;SDS011;47274;43.054;25.146;2023-07-30T09:19:51;5.10;;;2.92;;
61407;SDS011;47274;43.054;25.146;2023-07-30T09:22:25;4.78;;;3.00;;
61407;SDS011;47274;43.054;25.146;2023-07-30T09:24:55;3.85;;;2.90;;
61407;SDS011;47274;43.054;25.146;2023-07-30T09:27:23;4.13;;;2.90;;
61407;SDS011;47274;43.054;25.146;2023-07-30T09:29:53;6.07;;;3.00;;
61407;SDS011;47274;43.054;25.146;2023-07-30T09:32:20;3.97;;;3.00;;
61407;SDS011;47274;43.054;25.146;2023-07-30T09:34:51;5.38;;;3.03;;
61407;SDS011;47274;43.054;25.146;2023-07-30T09:37:16;4.50;;;2.83;;
61407;SDS011;47274;43.054;25.146;2023-07-30T09:39:42;3.47;;;2.75;;
61407;SDS011;47274;43.054;25.146;2023-07-30T09:42:08;6.55;;;3.40;;
61407;SDS011;47274;43.054;25.146;2023-07-30T09:44:35;4.15;;;3.13;;
61407;SDS011;47274;43.054;25.146;2023-07-30T09:47:03;5.28;;;3.13;;
61407;SDS011;47274;43.054;25.146;2023-07-30T09:49:30;5.82;;;3.10;;
61407;SDS011;47274;43.054;25.146;2023-07-30T09:52:03;6.13;;;3.50;;
61407;SDS011;47274;43.054;25.146;2023-07-30T09:54:36;5.45;;;3.40;;
61407;SDS011;47274;43.054;25.146;2023-07-30T09:57:04;5.35;;;2.90;;
61407;SDS011;47274;43.054;25.146;2023-07-30T09:59:30;4.88;;;3.10;;
61407;SDS011;47274;43.054;25.146;2023-07-30T10:01:56;6.65;;;3.25;;
61407;SDS011;47274;43.054;25.146;2023-07-30T10:04:23;4.95;;;3.20;;
61407;SDS011;47274;43.054;25.146;2023-07-30T10:06:56;3.75;;;2.97;;
61407;SDS011;47274;43.054;25.146;2023-07-30T10:09:30;5.22;;;2.97;;
61407;SDS011;47274;43.054;25.146;2023-07-30T10:11:59;3.80;;;2.78;;
61407;SDS011;47274;43.054;25.146;2023-07-30T10:14:27;5.93;;;2.97;;
61407;SDS011;47274;43.054;25.146;2023-07-30T10:16:54;3.97;;;2.78;;
61407;SDS011;47274;43.054;25.146;2023-07-30T10:19:26;3.13;;;2.80;;
61407;SDS011;47274;43.054;25.146;2023-07-30T10:22:01;3.67;;;2.83;;
61407;SDS011;47274;43.054;25.146;2023-07-30T10:25:17;3.90;;;2.60;;
61407;SDS011;47274;43.054;25.146;2023-07-30T10:27:41;6.05;;;2.95;;
61407;SDS011;47274;43.054;25.146;2023-07-30T10:30:15;4.03;;;3.10;;
61407;SDS011;47274;43.054;25.146;2023-07-30T10:35:39;3.75;;;2.85;;
61407;SDS011;47274;43.054;25.146;2023-07-30T10:38:17;5.82;;;3.22;;
61407;SDS011;47274;43.054;25.146;2023-07-30T10:41:14;6.15;;;3.20;;
61407;SDS011;47274;43.054;25.146;2023-07-30T10:43:46;3.70;;;3.08;;
61407;SDS011;47274;43.054;25.146;2023-07-30T10:46:16;5.10;;;3.42;;
61407;SDS011;47274;43.054;25.146;2023-07-30T10:48:45;8.38;;;3.30;;
61407;SDS011;47274;43.054;25.146;2023-07-30T10:51:15;9.40;;;3.60;;
61407;SDS011;47274;43.054;25.146;2023-07-30T10:53:45;5.00;;;3.35;;
61407;SDS011;47274;43.054;25.146;2023-07-30T10:56:12;4.63;;;3.22;;
61407;SDS011;47274;43.054;25.146;2023-07-30T10:58:39;4.25;;;3.33;;
61407;SDS011;47274;43.054;25.146;2023-07-30T11:01:06;7.03;;;3.97;;
61407;SDS011;47274;43.054;25.146;2023-07-30T11:03:35;9.15;;;3.80;;
61407;SDS011;47274;43.054;25.146;2023-07-30T11:06:03;8.45;;;3.50;;
61407;SDS011;47274;43.054;25.146;2023-07-30T11:10:59;8.13;;;3.55;;
61407;SDS011;47274;43.054;25.146;2023-07-30T11:13:26;6.78;;;3.97;;
61407;SDS011;47274;43.054;25.146;2023-07-30T11:15:52;9.48;;;4.72;;
61407;SDS011;47274;43.054;25.146;2023-07-30T11:18:18;6.55;;;4.28;;
61407;SDS011;47274;43.054;25.146;2023-07-30T11:20:46;6.50;;;4.13;;
61407;SDS011;47274;43.054;25.146;2023-07-30T11:23:19;6.72;;;3.92;;
61407;SDS011;47274;43.054;25.146;2023-07-30T11:25:49;6.40;;;4.15;;
61407;SDS011;47274;43.054;25.146;2023-07-30T11:28:37;5.82;;;3.95;;
61407;SDS011;47274;43.054;25.146;2023-07-30T11:31:08;5.93;;;3.60;;
61407;SDS011;47274;43.054;25.146;2023-07-30T11:33:35;5.55;;;3.58;;
61407;SDS011;47274;43.054;25.146;2023-07-30T11:36:10;6.30;;;3.65;;
61407;SDS011;47274;43.054;25.146;2023-07-30T11:38:39;7.05;;;4.10;;
61407;SDS011;47274;43.054;25.146;2023-07-30T11:41:07;5.32;;;3.55;;
61407;SDS011;47274;43.054;25.146;2023-07-30T11:43:36;6.10;;;4.03;;
61407;SDS011;47274;43.054;25.146;2023-07-30T11:46:06;4.87;;;3.60;;
61407;SDS011;47274;43.054;25.146;2023-07-30T11:48:38;7.05;;;3.40;;
61407;SDS011;47274;43.054;25.146;2023-07-30T11:51:05;5.68;;;3.65;;
61407;SDS011;47274;43.054;25.146;2023-07-30T11:58:47;3.85;;;3.10;;
61407;SDS011;47274;43.054;25.146;2023-07-30T12:01:14;4.10;;;3.15;;
61407;SDS011;47274;43.054;25.146;2023-07-30T12:03:41;5.60;;;3.60;;
61407;SDS011;47274;43.054;25.146;2023-07-30T12:06:11;4.82;;;3.33;;
61407;SDS011;47274;43.054;25.146;2023-07-30T12:08:38;3.72;;;2.90;;
61407;SDS011;47274;43.054;25.146;2023-07-30T12:11:04;4.43;;;3.28;;
61407;SDS011;47274;43.054;25.146;2023-07-30T12:13:44;3.65;;;3.05;;
61407;SDS011;47274;43.054;25.146;2023-07-30T12:16:11;3.35;;;2.67;;
61407;SDS011;47274;43.054;25.146;2023-07-30T12:18:40;4.07;;;3.08;;
61407;SDS011;47274;43.054;25.146;2023-07-30T12:21:08;3.75;;;2.90;;
61407;SDS011;47274;43.054;25.146;2023-07-30T12:23:37;4.70;;;2.88;;
61407;SDS011;47274;43.054;25.146;2023-07-30T12:26:05;4.43;;;3.00;;
61407;SDS011;47274;43.054;25.146;2023-07-30T12:28:34;4.97;;;3.15;;
61407;SDS011;47274;43.054;25.146;2023-07-30T12:31:00;3.50;;;2.90;;
61407;SDS011;47274;43.054;25.146;2023-07-30T12:33:27;3.83;;;2.92;;
61407;SDS011;47274;43.054;25.146;2023-07-30T12:35:53;3.30;;;2.83;;
61407;SDS011;47274;43.054;25.146;2023-07-30T12:38:19;4.07;;;3.10;;
61407;SDS011;47274;43.054;25.146;2023-07-30T12:40:45;6.32;;;3.30;;
61407;SDS011;47274;43.054;25.146;2023-07-30T12:43:11;3.50;;;2.80;;
61407;SDS011;47274;43.054;25.146;2023-07-30T12:45:37;3.45;;;2.88;;
61407;SDS011;47274;43.054;25.146;2023-07-30T12:48:04;4.65;;;2.97;;
61407;SDS011;47274;43.054;25.146;2023-07-30T12:50:33;4.72;;;3.22;;
61407;SDS011;47274;43.054;25.146;2023-07-30T12:53:01;4.00;;;3.33;;
61407;SDS011;47274;43.054;25.146;2023-07-30T12:55:27;4.65;;;3.30;;
61407;SDS011;47274;43.054;25.146;2023-07-30T12:57:53;4.75;;;3.35;;
61407;SDS011;47274;43.054;25.146;2023-07-30T13:00:19;4.85;;;3.10;;
61407;SDS011;47274;43.054;25.146;2023-07-30T13:02:45;4.25;;;3.17;;
61407;SDS011;47274;43.054;25.146;2023-07-30T13:05:11;4.68;;;3.30;;
61407;SDS011;47274;43.054;25.146;2023-07-30T13:07:39;4.43;;;3.10;;
61407;SDS011;47274;43.054;25.146;2023-07-30T13:10:05;4.38;;;3.20;;
61407;SDS011;47274;43.054;25.146;2023-07-30T13:12:33;4.05;;;2.95;;
61407;SDS011;47274;43.054;25.146;2023-07-30T13:14:59;3.42;;;2.95;;
61407;SDS011;47274;43.054;25.146;2023-07-30T13:17:25;5.80;;;3.47;;
61407;SDS011;47274;43.054;25.146;2023-07-30T13:19:51;3.30;;;3.00;;
61407;SDS011;47274;43.054;25.146;2023-07-30T13:22:22;4.55;;;3.03;;
61407;SDS011;47274;43.054;25.146;2023-07-30T13:24:48;3.63;;;2.85;;
61407;SDS011;47274;43.054;25.146;2023-07-30T13:27:14;4.20;;;2.90;;
61407;SDS011;47274;43.054;25.146;2023-07-30T13:29:40;5.40;;;3.00;;
61407;SDS011;47274;43.054;25.146;2023-07-30T13:32:15;4.30;;;3.00;;
61407;SDS011;47274;43.054;25.146;2023-07-30T13:34:44;5.57;;;3.42;;
61407;SDS011;47274;43.054;25.146;2023-07-30T13:37:10;4.35;;;2.92;;
61407;SDS011;47274;43.054;25.146;2023-07-30T13:39:39;5.63;;;3.45;;
61407;SDS011;47274;43.054;25.146;2023-07-30T13:42:05;5.70;;;3.22;;
61407;SDS011;47274;43.054;25.146;2023-07-30T13:44:34;4.28;;;3.10;;
61407;SDS011;47274;43.054;25.146;2023-07-30T13:47:00;3.88;;;3.28;;
61407;SDS011;47274;43.054;25.146;2023-07-30T13:49:26;3.55;;;3.10;;
61407;SDS011;47274;43.054;25.146;2023-07-30T13:51:52;4.30;;;3.08;;
61407;SDS011;47274;43.054;25.146;2023-07-30T13:54:20;3.85;;;3.03;;
61407;SDS011;47274;43.054;25.146;2023-07-30T13:56:46;3.80;;;2.88;;
61407;SDS011;47274;43.054;25.146;2023-07-30T13:59:12;3.47;;;3.17;;
61407;SDS011;47274;43.054;25.146;2023-07-30T14:01:38;5.13;;;3.00;;
61407;SDS011;47274;43.054;25.146;2023-07-30T14:04:04;4.07;;;3.20;;
61407;SDS011;47274;43.054;25.146;2023-07-30T14:06:30;3.75;;;2.97;;
61407;SDS011;47274;43.054;25.146;2023-07-30T14:08:56;3.85;;;3.00;;
61407;SDS011;47274;43.054;25.146;2023-07-30T14:11:25;4.07;;;2.85;;
61407;SDS011;47274;43.054;25.146;2023-07-30T14:13:52;3.92;;;3.20;;
61407;SDS011;47274;43.054;25.146;2023-07-30T14:16:21;6.15;;;3.10;;
61407;SDS011;47274;43.054;25.146;2023-07-30T14:18:50;4.82;;;3.00;;
61407;SDS011;47274;43.054;25.146;2023-07-30T14:21:16;2.97;;;2.70;;
61407;SDS011;47274;43.054;25.146;2023-07-30T14:23:42;3.63;;;2.70;;
61407;SDS011;47274;43.054;25.146;2023-07-30T14:26:08;3.95;;;2.88;;
61407;SDS011;47274;43.054;25.146;2023-07-30T14:28:33;3.83;;;2.75;;
61407;SDS011;47274;43.054;25.146;2023-07-30T14:30:59;4.35;;;3.05;;
61407;SDS011;47274;43.054;25.146;2023-07-30T14:33:25;3.80;;;2.92;;
61407;SDS011;47274;43.054;25.146;2023-07-30T14:35:54;3.35;;;2.70;;
61407;SDS011;47274;43.054;25.146;2023-07-30T14:38:20;3.35;;;2.85;;
61407;SDS011;47274;43.054;25.146;2023-07-30T14:40:53;4.43;;;3.15;;
61407;SDS011;47274;43.054;25.146;2023-07-30T14:43:22;4.35;;;2.92;;
61407;SDS011;47274;43.054;25.146;2023-07-30T14:45:48;3.33;;;3.00;;
61407;SDS011;47274;43.054;25.146;2023-07-30T14:48:16;4.05;;;3.03;;